West Leisenring, Pennsylvania
Current Conditions -  °F | °C
As of 4:53 PM on Friday 24 Oct 2014 (Local Time) from KMGW Reporting Station
Clear Clear  
Wind Chill: 63°   Ceiling: Unl
Heat Index: 63°   Visibility: 10mi
Dew Point: 33°   Wind: 6mph
Humidity: 33%   Direction: 310°NW
Pressure: 30.02"   Gusts: NA
Location:  39.96°N, 79.7°W
Report Text: KMGW 242053Z 31005KT 10SM CLR 17/01 A3002 RMK AO2 SLP166 T01720006 56014
Loading
Personal Weather Stations






























Interactive Weather Map
Tropical Storm Tracking
New forecast layout! Learn more

10-Day Weather Forecast

Advertisements
Track Severe Weather on mobile